Time;durP1;ratioP1;P1;durP2;ratioP2;P2;SDS_P1;SDS_P2;PMS_P1;PMS_P2;Temp;Humidity;BMP_temperature;BMP_pressure;BME280_temperature;BME280_humidity;BME280_pressure;Samples;Min_cycle;Max_cycle;Signal;HPM_P1;HPM_P2
2023/07/07 00:02:27;;;;;;;8.60;3.60;;;;;;;12.68;73.64;100837.31;102217;283;98372;-59
2023/07/07 00:05:03;;;;;;;5.10;3.80;;;;;;;12.69;73.86;100839.10;102180;283;120244;-59
2023/07/07 00:07:40;;;;;;;5.40;3.80;;;;;;;12.71;73.80;100839.70;102223;283;103763;-56
2023/07/07 00:10:21;;;;;;;5.50;3.70;;;;;;;12.73;73.98;100843.73;102204;282;111870;-56
2023/07/07 00:13:00;;;;;;;6.80;3.80;;;;;;;12.80;73.85;100843.27;102264;283;94137;-57
2023/07/07 00:15:44;;;;;;;5.00;3.60;;;;;;;12.85;73.78;100845.25;102226;283;97212;-56
2023/07/07 00:18:27;;;;;;;7.30;3.70;;;;;;;12.86;73.99;100845.01;102240;282;118110;-56
2023/07/07 00:21:04;;;;;;;5.50;3.80;;;;;;;12.88;74.16;100845.80;102185;283;105392;-56
2023/07/07 00:23:40;;;;;;;5.70;3.40;;;;;;;12.91;74.25;100851.18;102010;283;113820;-56
2023/07/07 00:26:21;;;;;;;5.90;3.70;;;;;;;12.95;74.26;100853.94;102195;283;96206;-57
2023/07/07 00:28:59;;;;;;;4.60;3.60;;;;;;;13.00;74.21;100859.08;102197;283;97959;-59
2023/07/07 00:31:34;;;;;;;5.60;4.30;;;;;;;13.08;74.14;100865.73;102172;283;118789;-59
2023/07/07 00:34:10;;;;;;;6.30;4.20;;;;;;;13.12;74.26;100868.45;102145;282;105553;-59
2023/07/07 00:36:45;;;;;;;7.00;4.30;;;;;;;13.15;74.44;100875.17;102103;283;114238;-59
2023/07/07 00:39:24;;;;;;;8.60;5.20;;;;;;;13.22;74.50;100872.59;102115;283;94520;-59
2023/07/07 00:42:03;;;;;;;9.50;4.60;;;;;;;13.29;74.44;100870.64;102111;283;97755;-59
2023/07/07 00:45:18;;;;;;;8.60;4.50;;;;;;;13.34;74.43;100870.07;102114;283;123453;-58
2023/07/07 00:48:03;;;;;;;9.70;4.50;;;;;;;13.44;74.53;100869.23;102188;283;104347;-58
2023/07/07 00:50:47;;;;;;;9.80;4.60;;;;;;;13.48;74.55;100874.78;102105;283;114633;-57
2023/07/07 00:53:31;;;;;;;4.80;4.10;;;;;;;13.54;74.67;100876.70;101957;283;95768;-57
2023/07/07 00:56:13;;;;;;;7.00;4.20;;;;;;;13.64;74.53;100882.58;102197;283;97695;-57
2023/07/07 00:58:48;;;;;;;7.70;4.50;;;;;;;13.70;74.54;100876.69;102191;283;120667;-56
2023/07/07 01:01:23;;;;;;;6.40;4.10;;;;;;;13.74;74.62;100884.36;102155;283;105444;-58
2023/07/07 01:04:04;;;;;;;5.50;4.10;;;;;;;13.75;74.63;100888.14;102217;283;114327;-57
2023/07/07 01:06:50;;;;;;;4.70;3.80;;;;;;;13.82;74.56;100884.34;102125;283;96109;-55
2023/07/07 01:09:27;;;;;;;10.00;4.10;;;;;;;13.83;74.50;100893.83;102126;283;97717;-56
2023/07/07 01:12:13;;;;;;;4.60;4.10;;;;;;;13.84;74.46;100892.46;101958;283;120611;-57
2023/07/07 01:14:51;;;;;;;5.10;3.80;;;;;;;13.89;74.44;100889.58;102089;283;104905;-58
2023/07/07 01:17:36;;;;;;;6.10;4.10;;;;;;;13.93;74.31;100878.98;102131;283;114266;-58
2023/07/07 01:20:32;;;;;;;6.40;3.40;;;;;;;13.89;74.32;100878.83;102095;282;93494;-59
2023/07/07 01:23:51;;;;;;;5.50;3.70;;;;;;;13.82;74.56;100872.77;102135;283;96948;-56
2023/07/07 01:26:55;;;;;;;6.20;4.20;;;;;;;13.75;74.36;100866.52;102145;283;119990;-56
2023/07/07 01:30:16;;;;;;;5.20;4.00;;;;;;;13.66;74.17;100866.89;102165;282;105939;-57
2023/07/07 01:33:08;;;;;;;6.60;3.70;;;;;;;13.49;74.34;100871.39;102007;283;113302;-57
2023/07/07 01:35:47;;;;;;;4.60;3.40;;;;;;;13.46;74.23;100873.08;102170;283;95922;-57
2023/07/07 01:38:42;;;;;;;6.00;4.50;;;;;;;13.41;74.40;100870.67;102166;283;97877;-56
2023/07/07 01:41:28;;;;;;;5.40;3.80;;;;;;;13.37;74.32;100868.00;102146;282;119494;-56
2023/07/07 01:44:14;;;;;;;8.80;3.80;;;;;;;13.29;74.63;100868.40;102169;282;105202;-57
2023/07/07 01:47:01;;;;;;;6.50;4.40;;;;;;;13.24;74.68;100872.02;102138;283;113089;-57
2023/07/07 01:49:46;;;;;;;7.80;4.40;;;;;;;13.14;74.70;100866.62;102166;283;96334;-57
2023/07/07 01:52:30;;;;;;;7.20;4.70;;;;;;;13.03;74.76;100871.41;102178;283;98218;-56
2023/07/07 01:55:15;;;;;;;5.90;4.30;;;;;;;12.95;74.90;100872.78;102139;283;120096;-59
2023/07/07 01:57:56;;;;;;;7.00;4.20;;;;;;;12.92;74.93;100879.15;102163;283;105374;-60
2023/07/07 02:00:37;;;;;;;5.20;4.20;;;;;;;12.88;75.24;100887.95;102166;283;113681;-59
2023/07/07 02:03:18;;;;;;;7.30;4.60;;;;;;;12.82;75.47;100886.71;102154;283;96992;-55
2023/07/07 02:05:54;;;;;;;7.90;4.60;;;;;;;12.79;75.58;100887.30;102163;283;98259;-56
2023/07/07 02:08:33;;;;;;;5.60;4.30;;;;;;;12.79;75.63;100886.97;102183;283;119643;-57
2023/07/07 02:11:16;;;;;;;5.60;4.30;;;;;;;12.79;75.89;100885.68;102170;283;106133;-57
2023/07/07 02:13:55;;;;;;;6.40;4.60;;;;;;;12.78;76.12;100887.54;102122;283;114343;-58
2023/07/07 02:16:34;;;;;;;6.40;4.30;;;;;;;12.83;76.31;100886.96;102133;283;95541;-59
2023/07/07 02:19:10;;;;;;;8.00;5.20;;;;;;;12.88;76.44;100892.41;102181;283;96898;-57
2023/07/07 02:21:47;;;;;;;8.50;4.90;;;;;;;12.94;76.73;100899.83;102162;283;120485;-58
2023/07/07 02:24:22;;;;;;;7.00;4.90;;;;;;;13.00;76.93;100906.50;102258;282;104065;-56
2023/07/07 02:27:01;;;;;;;7.10;4.80;;;;;;;13.08;77.05;100901.15;102152;283;115328;-56
2023/07/07 02:29:37;;;;;;;7.40;5.30;;;;;;;13.13;77.06;100907.05;102238;283;96732;-57
2023/07/07 02:32:20;;;;;;;5.90;4.90;;;;;;;13.18;77.22;100905.52;102180;283;97458;-57
2023/07/07 02:34:59;;;;;;;7.60;5.20;;;;;;;13.23;77.18;100905.40;102187;283;117248;-57
2023/07/07 02:37:36;;;;;;;8.10;4.80;;;;;;;13.30;77.24;100909.39;102221;283;106055;-58
2023/07/07 02:40:12;;;;;;;7.50;4.50;;;;;;;13.35;77.54;100909.98;102181;282;113431;-58
2023/07/07 02:42:47;;;;;;;6.50;4.70;;;;;;;13.41;77.61;100913.80;102208;283;93537;-55
2023/07/07 02:45:25;;;;;;;6.10;4.50;;;;;;;13.45;77.51;100918.98;102008;283;96677;-57
2023/07/07 02:47:59;;;;;;;6.10;4.50;;;;;;;13.50;77.32;100914.16;102167;283;119871;-56
2023/07/07 02:50:36;;;;;;;6.90;4.50;;;;;;;13.50;77.26;100914.58;102179;282;104896;-56
2023/07/07 02:53:12;;;;;;;6.50;4.60;;;;;;;13.45;77.16;100913.70;102145;283;114543;-59
2023/07/07 02:55:50;;;;;;;6.10;4.90;;;;;;;13.47;77.25;100914.06;102166;283;94922;-59
2023/07/07 02:58:29;;;;;;;7.20;4.70;;;;;;;13.46;77.03;100910.00;102224;283;97716;-57
2023/07/07 03:01:14;;;;;;;5.60;4.50;;;;;;;13.42;77.02;100911.23;102135;283;119161;-56
2023/07/07 03:03:49;;;;;;;;;;;;;;;13.40;77.02;100913.38;102232;283;106046;-57
2023/07/07 03:06:24;;;;;;;;;;;;;;;13.38;77.22;100916.85;102136;283;113695;-58
2023/07/07 03:09:05;;;;;;;7.20;4.80;;;;;;;13.40;77.24;100919.17;102184;283;95088;-58
2023/07/07 03:11:41;;;;;;;7.40;4.50;;;;;;;13.42;77.08;100925.00;102157;283;98056;-58
2023/07/07 03:14:22;;;;;;;6.30;4.80;;;;;;;13.42;77.22;100927.41;102237;283;117886;-57
2023/07/07 03:17:05;;;;;;;7.30;4.80;;;;;;;13.45;77.35;100929.33;102250;282;104661;-56
2023/07/07 03:19:51;;;;;;;6.30;4.70;;;;;;;13.51;77.26;100933.59;102194;283;113805;-57
2023/07/07 03:22:32;;;;;;;6.50;5.00;;;;;;;13.54;77.35;100935.22;102185;283;95846;-58
2023/07/07 03:25:12;;;;;;;6.30;5.00;;;;;;;13.59;77.29;100939.39;102120;282;98095;-56
2023/07/07 03:27:51;;;;;;;9.20;5.00;;;;;;;13.65;77.40;100943.61;102214;283;118501;-57
2023/07/07 03:30:26;;;;;;;7.20;4.90;;;;;;;13.74;77.26;100955.64;102152;283;105395;-56
2023/07/07 03:33:08;;;;;;;8.80;5.50;;;;;;;13.89;77.19;100950.49;102163;283;114238;-59
2023/07/07 03:35:43;;;;;;;6.70;5.00;;;;;;;14.06;76.94;100949.80;102149;283;96107;-59
2023/07/07 03:38:20;;;;;;;6.00;4.50;;;;;;;14.09;76.97;100951.11;102197;283;96616;-57
2023/07/07 03:40:56;;;;;;;8.00;4.90;;;;;;;14.10;76.77;100951.99;102157;283;120105;-58
2023/07/07 03:43:33;;;;;;;7.90;5.10;;;;;;;14.06;76.86;100954.13;102170;283;105111;-58
2023/07/07 03:46:13;;;;;;;6.60;5.20;;;;;;;14.01;76.94;100960.31;102192;283;114651;-59
2023/07/07 03:48:50;;;;;;;8.30;5.50;;;;;;;13.99;77.30;100959.09;102171;283;96638;-57
2023/07/07 03:51:28;;;;;;;6.40;4.80;;;;;;;14.06;77.14;100962.94;102157;283;97166;-56
2023/07/07 03:54:08;;;;;;;6.50;5.30;;;;;;;14.12;77.22;100962.58;102181;271;118562;-59
2023/07/07 03:56:45;;;;;;;10.30;5.80;;;;;;;14.22;77.23;100968.75;102211;283;105397;-59
2023/07/07 03:59:21;;;;;;;8.90;5.70;;;;;;;14.35;77.34;100969.56;102152;283;115008;-57
2023/07/07 04:01:59;;;;;;;7.50;5.40;;;;;;;14.61;77.48;100971.36;102173;283;94810;-57
2023/07/07 04:04:38;;;;;;;7.50;5.30;;;;;;;14.94;77.54;100971.73;102170;283;98168;-60
2023/07/07 04:07:20;;;;;;;11.80;6.90;;;;;;;15.12;76.99;100968.53;102002;283;117142;-58
2023/07/07 04:09:56;;;;;;;7.20;6.00;;;;;;;15.13;76.70;100964.40;102215;282;104698;-59
2023/07/07 04:12:37;;;;;;;7.60;6.10;;;;;;;15.15;76.80;100967.58;102239;283;114320;-58
2023/07/07 04:15:13;;;;;;;6.50;5.70;;;;;;;15.19;76.64;100971.40;102201;283;93585;-59
2023/07/07 04:17:49;;;;;;;7.70;5.80;;;;;;;15.46;76.72;100967.36;102251;282;97795;-56
2023/07/07 04:20:28;;;;;;;8.90;6.20;;;;;;;17.35;76.20;100964.72;102212;271;119600;-58
2023/07/07 04:23:03;;;;;;;8.30;6.10;;;;;;;18.90;74.35;100965.95;102232;283;104886;-57
2023/07/07 04:25:38;;;;;;;10.80;7.00;;;;;;;20.38;71.86;100965.35;102195;283;114169;-56
2023/07/07 04:28:19;;;;;;;9.30;6.20;;;;;;;20.67;69.66;100967.08;102203;283;94689;-57
2023/07/07 04:30:59;;;;;;;8.80;6.60;;;;;;;20.32;69.02;100968.25;102208;283;95976;-56
2023/07/07 04:33:42;;;;;;;9.40;6.40;;;;;;;20.00;68.15;100969.27;102228;283;120076;-59
2023/07/07 04:36:23;;;;;;;7.20;5.90;;;;;;;19.83;67.52;100968.24;102158;283;106235;-60
2023/07/07 04:38:59;;;;;;;15.30;6.70;;;;;;;19.54;67.39;100970.08;102150;283;115144;-58
2023/07/07 04:41:36;;;;;;;9.40;6.50;;;;;;;19.50;67.39;100973.14;102201;283;95086;-58
2023/07/07 04:44:12;;;;;;;9.00;6.80;;;;;;;19.54;67.32;100981.63;102188;282;98297;-59
2023/07/07 04:46:48;;;;;;;17.90;7.80;;;;;;;19.44;67.27;100978.67;102131;283;119385;-59
2023/07/07 04:49:26;;;;;;;16.80;8.10;;;;;;;19.57;67.40;100979.70;102185;283;103518;-57
2023/07/07 04:52:11;;;;;;;18.90;7.90;;;;;;;20.66;66.03;100978.70;102099;283;115030;-57
2023/07/07 04:54:49;;;;;;;26.20;9.30;;;;;;;22.16;64.50;100986.13;102113;283;93593;-59
2023/07/07 04:57:28;;;;;;;23.90;9.60;;;;;;;23.52;62.03;100985.21;102204;283;96953;-57
2023/07/07 05:00:06;;;;;;;35.10;10.10;;;;;;;24.26;60.43;100985.00;102102;283;119707;-57
2023/07/07 05:02:43;;;;;;;33.20;10.80;;;;;;;25.56;58.75;100989.45;101972;283;105196;-59
2023/07/07 05:05:19;;;;;;;42.40;9.50;;;;;;;26.83;56.76;100988.05;102092;283;114383;-59
2023/07/07 05:07:57;;;;;;;64.50;12.40;;;;;;;27.88;55.07;100985.97;102140;283;94565;-57
2023/07/07 05:10:37;;;;;;;42.70;12.00;;;;;;;28.67;53.25;100987.20;102104;283;98233;-57
2023/07/07 05:13:15;;;;;;;38.00;12.20;;;;;;;29.19;51.32;100989.81;102125;283;119083;-57
2023/07/07 05:16:01;;;;;;;34.40;12.20;;;;;;;29.79;50.00;100989.58;102063;283;105570;-58
2023/07/07 05:18:47;;;;;;;24.30;12.60;;;;;;;30.49;48.36;100981.00;101653;284;582445;-57
2023/07/07 05:21:26;;;;;;;27.60;11.60;;;;;;;31.17;47.17;100977.97;102055;282;92939;-59
2023/07/07 05:24:08;;;;;;;29.00;12.00;;;;;;;31.77;45.67;100977.84;102168;283;96482;-57
2023/07/07 05:26:46;;;;;;;22.30;13.10;;;;;;;32.22;44.38;100978.30;102086;283;117059;-57
2023/07/07 05:29:22;;;;;;;20.60;12.30;;;;;;;32.59;42.58;100980.23;102116;283;104147;-56
2023/07/07 05:31:59;;;;;;;25.00;13.50;;;;;;;32.94;41.35;100982.80;102149;283;115583;-56
2023/07/07 05:34:35;;;;;;;24.80;13.60;;;;;;;33.45;39.97;100982.11;102121;283;92453;-58
2023/07/07 05:37:14;;;;;;;25.40;12.10;;;;;;;33.75;38.91;100985.08;102124;283;97948;-58
2023/07/07 05:39:52;;;;;;;32.60;12.80;;;;;;;34.12;37.63;100983.98;102162;283;119595;-57
2023/07/07 05:42:31;;;;;;;28.00;11.90;;;;;;;34.46;36.82;100985.01;102149;282;105883;-58
2023/07/07 05:45:07;;;;;;;19.40;9.70;;;;;;;34.73;35.80;100985.30;102059;283;113337;-57
2023/07/07 05:47:47;;;;;;;16.90;10.60;;;;;;;35.06;34.69;100983.27;102175;283;93748;-61
2023/07/07 05:50:21;;;;;;;11.50;9.50;;;;;;;35.04;33.93;100987.91;102188;283;97829;-60
2023/07/07 05:52:58;;;;;;;14.50;8.50;;;;;;;35.42;33.70;100988.19;102184;271;118331;-58
2023/07/07 05:55:37;;;;;;;11.00;7.70;;;;;;;35.44;33.13;100988.21;102115;283;103957;-58
2023/07/07 05:58:14;;;;;;;12.00;8.20;;;;;;;36.09;31.78;100988.72;102139;283;113957;-63
2023/07/07 06:00:52;;;;;;;12.50;9.20;;;;;;;36.30;30.35;100996.98;102078;282;93544;-65
2023/07/07 06:03:32;;;;;;;10.30;7.30;;;;;;;36.49;29.99;100997.98;102164;283;97347;-57
2023/07/07 06:06:14;;;;;;;10.40;8.30;;;;;;;36.35;29.00;101003.20;102114;282;119361;-56
2023/07/07 06:08:59;;;;;;;11.60;7.00;;;;;;;36.34;28.73;101006.11;102096;271;105562;-56
2023/07/07 06:11:39;;;;;;;9.00;7.10;;;;;;;36.64;28.49;101005.69;102103;283;114555;-57
2023/07/07 06:14:14;;;;;;;11.00;7.30;;;;;;;36.76;28.33;101001.51;102179;283;95031;-57
2023/07/07 06:16:52;;;;;;;10.70;7.50;;;;;;;36.90;28.14;101006.35;102130;283;97190;-55
2023/07/07 06:19:27;;;;;;;11.30;7.40;;;;;;;37.34;27.35;101000.48;102155;271;117780;-57
2023/07/07 06:22:02;;;;;;;11.00;6.90;;;;;;;37.81;26.93;101001.49;102024;283;104919;-56
2023/07/07 06:24:39;;;;;;;8.90;6.10;;;;;;;37.71;26.78;101002.30;102208;283;114806;-57
2023/07/07 06:27:16;;;;;;;7.10;5.20;;;;;;;37.50;26.38;101000.92;102143;283;94368;-58
2023/07/07 06:29:54;;;;;;;9.70;5.90;;;;;;;37.32;25.95;100998.34;102155;283;96514;-57
2023/07/07 06:32:37;;;;;;;5.60;4.80;;;;;;;37.68;25.66;101004.41;102139;283;119187;-56
2023/07/07 06:35:12;;;;;;;7.60;5.10;;;;;;;37.84;25.95;101006.80;102093;283;104074;-57
2023/07/07 06:37:51;;;;;;;5.60;4.40;;;;;;;38.10;25.32;101009.05;101995;283;113782;-58
2023/07/07 06:40:30;;;;;;;5.40;4.90;;;;;;;38.41;24.93;101010.21;102090;283;93488;-58
2023/07/07 06:43:18;;;;;;;6.10;4.50;;;;;;;38.68;24.38;101008.86;102152;283;97322;-58
2023/07/07 06:46:02;;;;;;;7.40;4.90;;;;;;;38.86;24.25;101008.29;102114;283;119101;-57
2023/07/07 06:48:41;;;;;;;6.10;4.50;;;;;;;38.89;24.38;101010.12;102099;283;106256;-58
2023/07/07 06:51:20;;;;;;;5.40;4.00;;;;;;;39.25;24.43;101006.84;102086;283;114050;-57
2023/07/07 06:53:56;;;;;;;5.00;3.40;;;;;;;39.67;24.32;101001.55;102156;283;93606;-60
2023/07/07 06:56:31;;;;;;;3.40;3.00;;;;;;;40.13;23.49;101004.23;102070;283;96468;-60
2023/07/07 06:59:07;;;;;;;4.10;3.10;;;;;;;39.94;22.80;101001.48;102121;283;119038;-58
2023/07/07 07:01:52;;;;;;;4.00;3.40;;;;;;;39.96;22.40;101001.45;102095;283;104423;-57
2023/07/07 07:04:29;;;;;;;5.10;3.90;;;;;;;39.87;22.36;101000.67;102088;283;113095;-57
2023/07/07 07:07:13;;;;;;;4.80;3.50;;;;;;;39.84;22.37;101004.00;102092;283;94933;-56
2023/07/07 07:09:51;;;;;;;20.30;18.40;;;;;;;40.04;21.71;101000.88;102066;283;98097;-57
2023/07/07 07:12:31;;;;;;;5.20;3.60;;;;;;;40.31;22.09;101000.46;102088;283;119202;-59
2023/07/07 07:15:09;;;;;;;4.20;2.70;;;;;;;40.15;21.38;101004.02;102035;283;104232;-58
2023/07/07 07:17:48;;;;;;;4.80;3.30;;;;;;;40.01;21.30;101005.41;102097;283;115001;-56
2023/07/07 07:20:29;;;;;;;4.80;2.90;;;;;;;40.01;21.15;101004.85;102145;283;95097;-57
2023/07/07 07:23:09;;;;;;;6.60;3.50;;;;;;;40.05;20.90;101010.05;102132;283;98093;-60
2023/07/07 07:25:51;;;;;;;4.80;3.30;;;;;;;40.11;20.68;101015.02;102177;283;118258;-60
2023/07/07 07:28:29;;;;;;;3.30;2.50;;;;;;;39.76;20.97;101017.17;102164;283;104292;-56
2023/07/07 07:31:07;;;;;;;6.30;2.90;;;;;;;40.03;21.56;101017.77;102203;283;113653;-57
2023/07/07 07:33:53;;;;;;;3.80;2.70;;;;;;;40.49;21.18;101019.85;102003;283;94208;-57
2023/07/07 07:36:35;;;;;;;3.50;2.50;;;;;;;40.33;20.37;101020.40;102165;283;96373;-56
2023/07/07 07:39:13;;;;;;;2.70;2.40;;;;;;;39.99;20.35;101024.31;102160;283;120548;-59
2023/07/07 07:41:51;;;;;;;2.80;2.50;;;;;;;39.57;20.48;101027.09;102173;271;105733;-59
2023/07/07 07:44:27;;;;;;;3.10;2.60;;;;;;;39.85;20.87;101024.65;102166;271;114810;-56
2023/07/07 07:47:02;;;;;;;2.90;2.20;;;;;;;40.10;21.07;101025.82;102142;283;93251;-57
2023/07/07 07:49:37;;;;;;;3.40;2.20;;;;;;;40.54;20.65;101026.67;101950;283;97512;-57
2023/07/07 07:52:14;;;;;;;2.60;2.10;;;;;;;40.30;20.18;101025.29;102131;282;119596;-59
2023/07/07 07:54:50;;;;;;;2.70;2.20;;;;;;;39.02;20.27;101031.46;102209;282;104587;-56
2023/07/07 07:57:29;;;;;;;3.60;2.80;;;;;;;39.12;20.33;101030.59;102190;271;114062;-56
2023/07/07 08:00:12;;;;;;;3.10;2.70;;;;;;;39.47;20.14;101030.65;102183;282;93943;-56
2023/07/07 08:02:54;;;;;;;2.50;2.30;;;;;;;39.82;20.12;101025.08;102260;282;97280;-58
2023/07/07 08:05:35;;;;;;;2.30;2.10;;;;;;;40.48;20.31;101030.58;102173;283;119917;-56
2023/07/07 08:08:17;;;;;;;3.50;2.20;;;;;;;40.51;19.41;101028.38;102221;283;105955;-59
2023/07/07 08:10:58;;;;;;;7.20;2.40;;;;;;;40.68;19.37;101030.08;102229;282;113361;-58
2023/07/07 08:13:43;;;;;;;4.00;2.00;;;;;;;40.71;19.65;101033.05;102222;283;93471;-59
2023/07/07 08:16:25;;;;;;;2.40;2.20;;;;;;;41.12;19.55;101031.12;102177;283;98275;-59
2023/07/07 08:19:05;;;;;;;2.60;2.40;;;;;;;41.00;19.25;101034.47;102210;282;119683;-57
2023/07/07 08:21:47;;;;;;;2.70;2.10;;;;;;;41.39;19.39;101030.82;102215;282;105457;-57
2023/07/07 08:24:22;;;;;;;5.50;2.40;;;;;;;41.58;18.95;101033.15;102199;282;113091;-57
2023/07/07 08:26:59;;;;;;;5.30;2.30;;;;;;;41.01;18.65;101034.89;102168;283;94129;-57
2023/07/07 08:29:34;;;;;;;2.50;2.00;;;;;;;41.58;18.84;101032.98;102207;282;98105;-58
2023/07/07 08:32:21;;;;;;;2.70;2.50;;;;;;;40.79;18.32;101036.14;102203;283;120761;-58
2023/07/07 08:34:57;;;;;;;3.70;2.20;;;;;;;39.34;19.08;101036.51;102199;282;105666;-58
2023/07/07 08:37:35;;;;;;;2.60;2.40;;;;;;;37.81;19.54;101039.75;102141;283;115357;-56
2023/07/07 08:40:29;;;;;;;2.30;2.00;;;;;;;36.48;20.71;101042.35;101877;283;95953;-57
2023/07/07 08:43:06;;;;;;;2.80;1.90;;;;;;;36.67;21.86;101041.45;102150;283;97591;-56
2023/07/07 08:45:59;;;;;;;3.30;2.20;;;;;;;36.58;21.66;101035.87;102107;283;120186;-57
2023/07/07 08:48:50;;;;;;;2.60;2.20;;;;;;;36.32;21.59;101043.04;102142;283;105853;-60
2023/07/07 08:51:36;;;;;;;2.50;2.00;;;;;;;35.47;21.49;101041.87;102164;283;114528;-60
2023/07/07 08:54:23;;;;;;;3.60;2.00;;;;;;;34.21;22.09;101052.67;102159;283;94356;-58
2023/07/07 08:57:12;;;;;;;2.80;2.00;;;;;;;32.84;23.04;101047.60;102121;283;98329;-58
2023/07/07 09:00:03;;;;;;;3.70;1.60;;;;;;;31.93;23.62;101056.71;102151;283;118087;-59
2023/07/07 09:03:11;;;;;;;4.00;1.90;;;;;;;30.97;24.19;101063.73;102162;282;106154;-58
2023/07/07 09:06:14;;;;;;;2.30;1.60;;;;;;;30.74;25.44;101059.81;102115;283;114564;-59
2023/07/07 09:08:57;;;;;;;3.20;1.60;;;;;;;31.72;25.69;101052.40;102160;283;94283;-58
2023/07/07 09:11:48;;;;;;;2.10;1.50;;;;;;;32.53;25.37;101052.29;102139;282;96744;-58
2023/07/07 09:14:35;;;;;;;2.40;2.00;;;;;;;33.01;24.83;101048.52;102056;283;120011;-57
2023/07/07 09:17:25;;;;;;;3.80;1.90;;;;;;;33.25;24.77;101051.09;102157;283;105947;-60
2023/07/07 09:20:05;;;;;;;4.10;2.10;;;;;;;32.71;23.96;101058.02;102128;283;113271;-58
2023/07/07 09:22:49;;;;;;;2.60;1.70;;;;;;;31.87;24.23;101059.26;102152;283;93422;-59
2023/07/07 09:25:29;;;;;;;4.20;2.20;;;;;;;31.34;24.57;101053.04;102106;283;98200;-56
2023/07/07 09:28:07;;;;;;;2.30;1.90;;;;;;;30.88;25.16;101056.21;102110;283;119376;-56
2023/07/07 09:30:47;;;;;;;3.10;1.70;;;;;;;30.57;25.89;101058.33;102124;271;105886;-57
2023/07/07 09:33:24;;;;;;;2.80;2.00;;;;;;;30.66;26.08;101055.33;102136;283;115577;-58
2023/07/07 09:36:19;;;;;;;3.60;2.00;;;;;;;30.88;26.54;101051.45;102080;283;93570;-58
2023/07/07 09:39:16;;;;;;;3.00;1.70;;;;;;;30.87;26.89;101054.70;102077;283;97993;-59
2023/07/07 09:42:08;;;;;;;3.80;1.70;;;;;;;30.78;26.06;101052.73;102099;283;119183;-60
2023/07/07 09:45:03;;;;;;;2.80;2.00;;;;;;;30.71;26.20;101053.16;102179;275;104627;-56
2023/07/07 09:47:49;;;;;;;3.30;1.40;;;;;;;31.23;26.66;101051.50;102153;283;115031;-56
2023/07/07 09:50:31;;;;;;;3.40;1.60;;;;;;;31.41;25.91;101047.83;102151;283;93770;-58
2023/07/07 09:53:16;;;;;;;2.20;1.70;;;;;;;31.80;25.93;101041.60;102140;283;96257;-56
2023/07/07 09:55:55;;;;;;;2.70;1.60;;;;;;;32.11;25.39;101037.74;101920;285;119528;-56
2023/07/07 09:58:39;;;;;;;2.80;1.40;;;;;;;32.24;25.79;101043.85;101976;283;106025;-56
2023/07/07 10:01:14;;;;;;;3.00;1.50;;;;;;;32.04;25.65;101047.90;102060;283;115452;-58
2023/07/07 10:03:51;;;;;;;3.90;1.70;;;;;;;31.42;25.75;101055.11;102158;283;93055;-57
2023/07/07 10:06:39;;;;;;;4.30;2.00;;;;;;;31.05;26.19;101056.89;102128;283;97117;-57
2023/07/07 10:09:31;;;;;;;3.60;1.70;;;;;;;30.46;26.57;101058.08;102192;282;119652;-60
2023/07/07 10:12:15;;;;;;;4.50;1.70;;;;;;;30.53;26.91;101053.71;102132;283;105413;-57
2023/07/07 10:15:02;;;;;;;2.80;1.90;;;;;;;31.02;27.15;101050.84;102133;283;113406;-59
2023/07/07 10:17:52;;;;;;;2.90;1.80;;;;;;;30.69;25.92;101054.83;102132;283;94736;-59
2023/07/07 10:20:28;;;;;;;3.60;1.70;;;;;;;30.38;26.00;101054.98;102149;283;96911;-61
2023/07/07 10:23:10;;;;;;;2.10;1.60;;;;;;;30.40;26.20;101056.29;102143;283;119444;-58
2023/07/07 10:25:48;;;;;;;3.60;1.70;;;;;;;30.49;26.56;101050.83;102095;283;104766;-57
2023/07/07 10:28:25;;;;;;;2.00;1.70;;;;;;;30.56;26.96;101051.21;102177;283;114562;-60
2023/07/07 10:31:09;;;;;;;3.40;1.70;;;;;;;30.42;27.26;101058.44;102137;283;93613;-60
2023/07/07 10:33:53;;;;;;;2.30;1.50;;;;;;;30.51;27.54;101061.69;102177;283;95443;-60
2023/07/07 10:36:32;;;;;;;2.50;1.70;;;;;;;30.34;27.63;101059.50;102124;283;119766;-60
2023/07/07 10:39:14;;;;;;;5.50;2.50;;;;;;;30.05;27.40;101062.31;102172;283;104501;-60
2023/07/07 10:41:50;;;;;;;5.20;1.80;;;;;;;29.68;27.65;101061.11;102127;283;113469;-58
2023/07/07 10:44:29;;;;;;;2.30;1.60;;;;;;;29.47;27.82;101063.40;102125;283;94534;-58
2023/07/07 10:47:05;;;;;;;2.10;1.60;;;;;;;29.34;28.09;101062.40;102141;283;97941;-60
2023/07/07 10:49:53;;;;;;;4.00;2.00;;;;;;;29.41;28.21;101061.27;102112;283;118380;-60
2023/07/07 10:52:55;;;;;;;1.80;1.60;;;;;;;29.90;28.07;101062.86;102162;283;104240;-56
2023/07/07 10:55:44;;;;;;;3.30;1.40;;;;;;;30.12;27.05;101060.74;102142;283;113461;-57
2023/07/07 10:58:34;;;;;;;2.90;1.70;;;;;;;29.92;26.34;101060.13;102167;282;94595;-57
2023/07/07 11:01:33;;;;;;;2.50;1.40;;;;;;;30.18;26.04;101048.81;102130;282;97560;-57
2023/07/07 11:04:45;;;;;;;3.00;1.80;;;;;;;30.16;26.26;101049.54;102183;282;120410;-56
2023/07/07 11:07:33;;;;;;;3.70;1.50;;;;;;;29.81;26.57;101051.69;102129;283;103619;-58
2023/07/07 11:10:42;;;;;;;3.60;1.70;;;;;;;29.40;26.91;101054.19;102150;283;113493;-58
2023/07/07 11:13:33;;;;;;;4.00;1.90;;;;;;;29.29;27.13;101055.29;102188;283;94451;-57
2023/07/07 11:16:24;;;;;;;2.60;2.00;;;;;;;29.53;27.26;101048.11;102122;283;96103;-57
2023/07/07 11:19:21;;;;;;;3.90;1.50;;;;;;;29.66;26.98;101043.92;102243;282;119392;-57
2023/07/07 11:22:18;;;;;;;2.50;1.60;;;;;;;29.70;26.59;101040.69;102141;282;105741;-57
2023/07/07 11:25:05;;;;;;;3.00;1.50;;;;;;;29.66;26.66;101040.46;102161;283;114689;-59
2023/07/07 11:28:11;;;;;;;3.20;2.10;;;;;;;29.95;26.38;101036.56;102168;283;94756;-58
2023/07/07 11:30:57;;;;;;;5.10;1.50;;;;;;;29.86;26.11;101038.88;102227;283;95871;-56
2023/07/07 11:33:49;;;;;;;2.50;1.60;;;;;;;29.98;26.42;101035.79;102240;283;117674;-59
2023/07/07 11:36:47;;;;;;;3.20;1.80;;;;;;;30.20;26.38;101031.68;102194;282;105312;-59
2023/07/07 11:39:51;;;;;;;2.10;1.40;;;;;;;30.06;25.79;101037.83;102206;283;115206;-56
2023/07/07 11:42:53;;;;;;;1.40;1.20;;;;;;;29.92;25.25;101029.19;102235;283;93981;-55
2023/07/07 11:45:38;;;;;;;2.30;1.70;;;;;;;29.92;25.65;101030.58;102147;283;97354;-57
2023/07/07 11:48:32;;;;;;;2.00;1.40;;;;;;;30.21;26.23;101031.38;102204;283;119562;-57
2023/07/07 11:51:39;;;;;;;3.00;1.50;;;;;;;30.26;25.97;101022.99;102191;283;104900;-57
2023/07/07 11:54:47;;;;;;;4.10;1.60;;;;;;;30.56;26.07;101023.82;102216;283;116297;-59
2023/07/07 11:57:52;;;;;;;2.70;1.60;;;;;;;30.84;26.01;101017.30;102184;283;93647;-58
2023/07/07 12:00:42;;;;;;;2.90;1.70;;;;;;;30.83;25.57;101015.55;102222;282;97092;-57
2023/07/07 12:03:44;;;;;;;2.40;1.70;;;;;;;30.78;25.89;101016.04;102244;282;118918;-57
2023/07/07 12:06:33;;;;;;;3.20;1.60;;;;;;;30.56;25.83;101019.02;102231;282;105412;-57
2023/07/07 12:09:35;;;;;;;2.60;1.50;;;;;;;30.51;25.66;101024.77;102184;282;112453;-57
2023/07/07 12:12:21;;;;;;;3.30;1.40;;;;;;;30.11;25.36;101032.16;102202;283;94889;-57
2023/07/07 12:15:06;;;;;;;3.40;1.80;;;;;;;30.03;25.45;101019.20;101927;283;99133;-56
2023/07/07 12:17:52;;;;;;;1.90;1.40;;;;;;;30.05;25.33;101023.52;101952;284;118713;-59
2023/07/07 12:20:39;;;;;;;2.50;1.30;;;;;;;29.87;25.31;101023.81;101932;284;103936;-60
2023/07/07 12:23:30;;;;;;;3.60;1.50;;;;;;;29.51;24.83;101021.47;101962;284;115746;-58
2023/07/07 12:26:20;;;;;;;2.60;1.40;;;;;;;29.27;24.75;101006.25;102143;282;93688;-58
2023/07/07 12:29:03;;;;;;;1.90;1.30;;;;;;;29.31;25.50;101016.84;102186;282;98398;-59
2023/07/07 12:31:43;;;;;;;3.80;1.60;;;;;;;29.54;26.05;101012.62;102040;283;118809;-57